This is the latest recevied weather packets stored in our database for station/object OE-11049. If no packets are shown the sender has not sent any weather packets the latest 10 day(s).
| Time | Temp. | Humidity | Pressure | Rain* | Wind** | Luminosity | Snow |
|---|---|---|---|---|---|---|---|
| 1787748918 | 23.89° C | 57% | 1015.7 hPa | 0 mm | - | 275 W/m² | - |
| 1787748090 | 23.89° C | 57% | 1015.8 hPa | 0 mm | - | 199 W/m² | - |
| 1787747717 | 23.89° C | 57% | 1015.8 hPa | 0 mm | - | 298 W/m² | - |
| 1787747116 | 24.44° C | 57% | 1015.8 hPa | 0 mm | - | 351 W/m² | - |
| 1787746290 | 25° C | 60% | 1015.7 hPa | 0 mm | - | 345 W/m² | - |
| 1787745917 | 24.44° C | 58% | 1015.7 hPa | 0 mm | - | 701 W/m² | - |
| 1787745316 | 24.44° C | 57% | 1015.9 hPa | 0 mm | - | 701 W/m² | - |
| 1787744489 | 24.44° C | 61% | 1015.8 hPa | 0 mm | - | 690 W/m² | - |
| 1787744117 | 24.44° C | 59% | 1016 hPa | 0 mm | - | 637 W/m² | - |
| 1787743517 | 23.89° C | 59% | 1016.1 hPa | 0 mm | - | 655 W/m² | - |
| 1787742690 | 23.33° C | 60% | 1016.3 hPa | 0 mm | - | 397 W/m² | - |
| 1787742316 | 23.33° C | 62% | 1016.3 hPa | 0 mm | - | 403 W/m² | - |
| 1787741716 | 23.33° C | 64% | 1016.4 hPa | 0 mm | - | 433 W/m² | - |
| 1787740890 | 23.33° C | 63% | 1016.5 hPa | 0 mm | - | 637 W/m² | - |
| 1787740517 | 22.78° C | 64% | 1016.7 hPa | 0 mm | - | 497 W/m² | - |
| 1787739917 | 22.78° C | 63% | 1016.7 hPa | 0 mm | - | 602 W/m² | - |
| 1787739089 | 22.78° C | 64% | 1016.7 hPa | 0 mm | - | 549 W/m² | - |
| 1787738717 | 22.78° C | 66% | 1016.7 hPa | 0 mm | - | 748 W/m² | - |
| 1787738117 | 22.22° C | 66% | 1017 hPa | 0 mm | - | 713 W/m² | - |
| 1787737290 | 22.22° C | 73% | 1017 hPa | 0 mm | - | 725 W/m² | - |
| 1787736916 | 21.11° C | 72% | 1017.3 hPa | 0 mm | - | 509 W/m² | - |
| 1787736317 | 21.11° C | 72% | 1017.2 hPa | 0 mm | - | 725 W/m² | - |
| 1787735490 | 20.56° C | 76% | 1017.1 hPa | 0 mm | - | 520 W/m² | - |
| 1787735117 | 19.44° C | 76% | 1017.2 hPa | 0 mm | - | 345 W/m² | - |
| 1787733690 | 19.44° C | 78% | 1017.3 hPa | 0 mm | - | 269 W/m² | - |
* Rain latest hour (hover to see other rain measurements)
** Current wind speed in m/s (hover to see current wind gust speed)